Time,TemperatureF,DewpointF,PressureIn,WindDirection,WindDirectionDegrees,WindSpeedMPH,WindSpeedGustMPH,Humidity,HourlyPrecipIn,Conditions,Clouds,dailyrainin,SoftwareType,DateUTC
2013-07-22 00:00:00,52.0,50.0,-100.00,NNW,340,5.0,-999.0,93,0.00,,,-99.99,,2013-07-22 07:00:00,
2013-07-22 00:33:00,52.0,50.0,-100.00,NNW,340,5.0,-999.0,93,0.00,,,-99.99,,2013-07-22 07:33:00,
2013-07-22 00:53:00,52.0,50.0,-100.00,NNW,340,5.0,-999.0,93,0.00,,,-99.99,,2013-07-22 07:53:00,
2013-07-22 01:00:00,52.0,51.0,-100.00,NNE,13,9.0,-999.0,94,0.00,,,-99.99,,2013-07-22 08:00:00,
2013-07-22 01:32:00,52.0,51.0,-100.00,NNE,13,9.0,-999.0,94,0.00,,,-99.99,,2013-07-22 08:32:00,
2013-07-22 01:52:00,52.0,51.0,-100.00,NNE,13,9.0,-999.0,94,0.00,,,-99.99,,2013-07-22 08:52:00,
2013-07-22 02:00:00,52.0,51.0,-100.00,North,9,6.0,-999.0,94,0.00,,,-99.99,,2013-07-22 09:00:00,
2013-07-22 02:33:00,52.0,51.0,-100.00,North,9,6.0,-999.0,94,0.00,,,-99.99,,2013-07-22 09:33:00,
2013-07-22 02:52:00,52.0,51.0,-100.00,North,9,6.0,-999.0,94,0.00,,,-99.99,,2013-07-22 09:52:00,
2013-07-22 03:00:00,53.0,51.0,-100.00,North,4,7.0,-999.0,94,0.00,,,-99.99,,2013-07-22 10:00:00,
2013-07-22 03:22:00,53.0,51.0,-100.00,North,4,7.0,-999.0,94,0.00,,,-99.99,,2013-07-22 10:22:00,
2013-07-22 03:32:00,53.0,51.0,-100.00,North,4,7.0,-999.0,94,0.00,,,-99.99,,2013-07-22 10:32:00,
2013-07-22 03:53:00,53.0,51.0,-100.00,North,4,7.0,-999.0,94,0.00,,,-99.99,,2013-07-22 10:53:00,
2013-07-22 04:00:00,53.0,51.0,-100.00,North,4,9.0,-999.0,95,0.00,,,-99.99,,2013-07-22 11:00:00,
2013-07-22 04:32:00,53.0,51.0,-100.00,North,4,9.0,-999.0,95,0.00,,,-99.99,,2013-07-22 11:32:00,
2013-07-22 04:52:00,53.0,51.0,-100.00,North,4,9.0,-999.0,95,0.00,,,-99.99,,2013-07-22 11:52:00,
2013-07-22 05:33:00,53.0,52.0,-100.00,North,3,10.0,-999.0,95,0.00,,,-99.99,,2013-07-22 12:33:00,
2013-07-22 05:53:00,53.0,52.0,-100.00,North,3,10.0,-999.0,95,0.00,,,-99.99,,2013-07-22 12:53:00,
2013-07-22 06:00:00,54.0,53.0,-100.00,NNE,22,5.0,-999.0,96,0.00,,,-99.99,,2013-07-22 13:00:00,
2013-07-22 06:32:00,54.0,53.0,-100.00,NNE,22,5.0,-999.0,96,0.00,,,-99.99,,2013-07-22 13:32:00,
2013-07-22 06:43:00,54.0,53.0,-100.00,NNE,22,5.0,-999.0,96,0.00,,,-99.99,,2013-07-22 13:43:00,
2013-07-22 06:53:00,54.0,53.0,-100.00,NNE,22,5.0,-999.0,96,0.00,,,-99.99,,2013-07-22 13:53:00,
2013-07-22 07:00:00,54.0,53.0,-100.00,North,9,6.0,-999.0,95,0.00,,,-99.99,,2013-07-22 14:00:00,
2013-07-22 07:32:00,54.0,53.0,-100.00,North,9,6.0,-999.0,95,0.00,,,-99.99,,2013-07-22 14:32:00,
2013-07-22 07:43:00,54.0,53.0,-100.00,North,9,6.0,-999.0,95,0.00,,,-99.99,,2013-07-22 14:43:00,
2013-07-22 07:53:00,54.0,53.0,-100.00,North,9,6.0,-999.0,95,0.00,,,-99.99,,2013-07-22 14:53:00,
2013-07-22 08:00:00,55.0,54.0,-100.00,North,357,5.0,-999.0,95,0.00,,,-99.99,,2013-07-22 15:00:00,
2013-07-22 08:33:00,55.0,54.0,-100.00,North,357,5.0,-999.0,95,0.00,,,-99.99,,2013-07-22 15:33:00,
2013-07-22 08:52:00,55.0,54.0,-100.00,North,357,5.0,-999.0,95,0.00,,,-99.99,,2013-07-22 15:52:00,
2013-07-22 09:00:00,60.0,54.0,-100.00,NNW,345,2.0,-999.0,80,0.00,,,-99.99,,2013-07-22 16:00:00,
2013-07-22 09:32:00,60.0,54.0,-100.00,NNW,345,2.0,-999.0,80,0.00,,,-99.99,,2013-07-22 16:32:00,
2013-07-22 09:43:00,60.0,54.0,-100.00,NNW,345,2.0,-999.0,80,0.00,,,-99.99,,2013-07-22 16:43:00,
2013-07-22 09:52:00,60.0,54.0,-100.00,NNW,345,2.0,-999.0,80,0.00,,,-99.99,,2013-07-22 16:52:00,
2013-07-22 10:23:00,64.0,55.0,-100.00,NNE,22,6.0,-999.0,70,0.00,,,-99.99,,2013-07-22 17:23:00,
2013-07-22 10:33:00,64.0,55.0,-100.00,NNE,22,6.0,-999.0,70,0.00,,,-99.99,,2013-07-22 17:33:00,
2013-07-22 10:52:00,64.0,55.0,-100.00,NNE,22,6.0,-999.0,70,0.00,,,-99.99,,2013-07-22 17:52:00,
2013-07-22 11:00:00,71.0,54.0,-100.00,SSE,163,3.0,-999.0,55,0.00,,,-99.99,,2013-07-22 18:00:00,
2013-07-22 11:53:00,71.0,54.0,-100.00,SSE,163,3.0,-999.0,55,0.00,,,-99.99,,2013-07-22 18:53:00,
2013-07-22 12:00:00,75.0,53.0,-100.00,South,169,7.0,-999.0,47,0.00,,,-99.99,,2013-07-22 19:00:00,
2013-07-22 12:37:00,75.0,53.0,-100.00,South,169,7.0,-999.0,47,0.00,,,-99.99,,2013-07-22 19:37:00,
2013-07-22 12:55:00,75.0,53.0,-100.00,South,169,7.0,-999.0,47,0.00,,,-99.99,,2013-07-22 19:55:00,
2013-07-22 13:32:00,78.0,55.0,-100.00,WSW,254,7.0,-999.0,44,0.00,,,-99.99,,2013-07-22 20:32:00,
2013-07-22 13:43:00,78.0,55.0,-100.00,WSW,254,7.0,-999.0,44,0.00,,,-99.99,,2013-07-22 20:43:00,
2013-07-22 13:52:00,78.0,55.0,-100.00,WSW,254,7.0,-999.0,44,0.00,,,-99.99,,2013-07-22 20:52:00,
2013-07-22 14:00:00,79.0,56.0,-100.00,SW,229,6.0,-999.0,46,0.00,,,-99.99,,2013-07-22 21:00:00,
2013-07-22 14:33:00,79.0,56.0,-100.00,SW,229,6.0,-999.0,46,0.00,,,-99.99,,2013-07-22 21:33:00,
2013-07-22 14:53:00,79.0,56.0,-100.00,SW,229,6.0,-999.0,46,0.00,,,-99.99,,2013-07-22 21:53:00,
2013-07-22 15:00:00,75.0,56.0,-100.00,SW,229,9.0,-999.0,51,0.00,,,-99.99,,2013-07-22 22:00:00,
2013-07-22 15:43:00,75.0,56.0,-100.00,SW,229,9.0,-999.0,51,0.00,,,-99.99,,2013-07-22 22:43:00,
2013-07-22 15:52:00,75.0,56.0,-100.00,SW,229,9.0,-999.0,51,0.00,,,-99.99,,2013-07-22 22:52:00,
2013-07-22 16:00:00,75.0,56.0,-100.00,West,264,4.0,-999.0,51,0.00,,,-99.99,,2013-07-22 23:00:00,
2013-07-22 16:32:00,75.0,56.0,-100.00,West,264,4.0,-999.0,51,0.00,,,-99.99,,2013-07-22 23:32:00,
2013-07-22 16:43:00,75.0,56.0,-100.00,West,264,4.0,-999.0,51,0.00,,,-99.99,,2013-07-22 23:43:00,
2013-07-22 16:52:00,75.0,56.0,-100.00,West,264,4.0,-999.0,51,0.00,,,-99.99,,2013-07-22 23:52:00,
2013-07-22 17:00:00,67.0,56.0,-100.00,WNW,303,8.0,-999.0,66,0.00,,,-99.99,,2013-07-23 00:00:00,
2013-07-22 17:32:00,67.0,56.0,-100.00,WNW,303,8.0,-999.0,66,0.00,,,-99.99,,2013-07-23 00:32:00,
2013-07-22 17:43:00,67.0,56.0,-100.00,WNW,303,8.0,-999.0,66,0.00,,,-99.99,,2013-07-23 00:43:00,
2013-07-22 17:52:00,67.0,56.0,-100.00,WNW,303,8.0,-999.0,66,0.00,,,-99.99,,2013-07-23 00:52:00,
2013-07-22 18:00:00,64.0,55.0,-100.00,West,271,10.0,-999.0,73,0.00,,,-99.99,,2013-07-23 01:00:00,
2013-07-22 18:32:00,64.0,55.0,-100.00,West,271,10.0,-999.0,73,0.00,,,-99.99,,2013-07-23 01:32:00,
2013-07-22 18:43:00,64.0,55.0,-100.00,West,271,10.0,-999.0,73,0.00,,,-99.99,,2013-07-23 01:43:00,
2013-07-22 18:53:00,64.0,55.0,-100.00,West,271,10.0,-999.0,73,0.00,,,-99.99,,2013-07-23 01:53:00,
2013-07-22 19:00:00,61.0,55.0,-100.00,WSW,250,5.0,-999.0,80,0.00,,,-99.99,,2013-07-23 02:00:00,
2013-07-22 19:33:00,61.0,55.0,-100.00,WSW,250,5.0,-999.0,80,0.00,,,-99.99,,2013-07-23 02:33:00,
2013-07-22 19:43:00,61.0,55.0,-100.00,WSW,250,5.0,-999.0,80,0.00,,,-99.99,,2013-07-23 02:43:00,
2013-07-22 19:53:00,61.0,55.0,-100.00,WSW,250,5.0,-999.0,80,0.00,,,-99.99,,2013-07-23 02:53:00,
2013-07-22 20:00:00,60.0,55.0,-100.00,WSW,238,5.0,-999.0,82,0.00,,,-99.99,,2013-07-23 03:00:00,
2013-07-22 20:33:00,60.0,55.0,-100.00,WSW,238,5.0,-999.0,82,0.00,,,-99.99,,2013-07-23 03:33:00,
2013-07-22 20:52:00,60.0,55.0,-100.00,WSW,238,5.0,-999.0,82,0.00,,,-99.99,,2013-07-23 03:52:00,
2013-07-22 21:00:00,59.0,54.0,-100.00,NW,314,7.0,-999.0,84,0.00,,,-99.99,,2013-07-23 04:00:00,
2013-07-22 21:32:00,59.0,54.0,-100.00,NW,314,7.0,-999.0,84,0.00,,,-99.99,,2013-07-23 04:32:00,
2013-07-22 21:53:00,59.0,54.0,-100.00,NW,314,7.0,-999.0,84,0.00,,,-99.99,,2013-07-23 04:53:00,
2013-07-22 22:00:00,59.0,54.0,-100.00,NNW,335,6.0,-999.0,84,0.00,,,-99.99,,2013-07-23 05:00:00,
2013-07-22 22:33:00,59.0,54.0,-100.00,NNW,335,6.0,-999.0,84,0.00,,,-99.99,,2013-07-23 05:33:00,
2013-07-22 22:52:00,59.0,54.0,-100.00,NNW,335,6.0,-999.0,84,0.00,,,-99.99,,2013-07-23 05:52:00,
2013-07-22 23:00:00,58.0,54.0,-100.00,WSW,246,4.0,-999.0,86,0.00,,,-99.99,,2013-07-23 06:00:00,
2013-07-22 23:33:00,58.0,54.0,-100.00,WSW,246,4.0,-999.0,86,0.00,,,-99.99,,2013-07-23 06:33:00,
2013-07-22 23:42:00,58.0,54.0,-100.00,WSW,246,4.0,-999.0,86,0.00,,,-99.99,,2013-07-23 06:42:00,
2013-07-22 23:52:00,58.0,54.0,-100.00,WSW,246,4.0,-999.0,86,0.00,,,-99.99,,2013-07-23 06:52:00,